SEGU/GYE METAR and TAF weather

Enter ICAO airport designator
Station Type Date Time Source
SEGU METAR 2020/07/14 01:00 UTC NOAA

SEGU 140100Z 21007KT 9999 FEW033 24/20 Q1010 NOSIG RMK A2984


Station Type Date Time Source
SEGU Decoded METAR 2020/07/14 01:00 UTC NOAA

Guayaquil / Simon Bolivar, Ecuador (SEGU) 02-09S 079-53W 9M
Jul 13, 2020 - 09:00 PM EDT / 2020.07.14 0100 UTC
Wind: from the SSW (210 degrees) at 8 MPH (7 KT):0
Visibility: greater than 7 mile(s):0
Sky conditions: mostly clear
Temperature: 75 F (24 C)
Dew Point: 68 F (20 C)
Relative Humidity: 78%
Pressure (altimeter): 29.83 in. Hg (1010 hPa)
ob: SEGU 140100Z 21007KT 9999 FEW033 24/20 Q1010 NOSIG RMK A2984
cycle: 1

Station Type Date Time Source
SEGU TAF 2020/07/13 18:41 UTC NOAA

TAF SEGU 131615Z 1318/1418 16005KT 9999 BKN020 BKN100
BECMG 1400/1402 22008KT FEW010 BKN026 BKN100
BECMG 1414/1415 SCT026 BKN100 TX29/1320Z TN21/1410Z

Example: see airport list